Time,TemperatureF,DewpointF,PressureIn,WindDirection,WindDirectionDegrees,WindSpeedMPH,WindSpeedGustMPH,Humidity,HourlyPrecipIn,Conditions,Clouds,dailyrainin,SoftwareType,DateUTC
2013-04-22 00:03:00,50.7,37.7,29.99,NW,312,0.0,1.0,61,0.00,,,0.00,Wunderground v.1.15,2013-04-22 07:03:00,
2013-04-22 00:08:00,50.5,37.5,29.99,NW,312,0.0,1.0,61,0.00,,,0.00,Wunderground v.1.15,2013-04-22 07:08:00,
2013-04-22 00:13:00,50.4,37.4,29.99,SSW,208,0.0,2.0,61,0.00,,,0.00,Wunderground v.1.15,2013-04-22 07:13:00,
2013-04-22 00:19:00,50.1,37.2,29.97,ESE,109,0.0,2.0,61,0.00,,,0.00,Wunderground v.1.15,2013-04-22 07:19:00,
2013-04-22 00:25:00,49.5,36.6,29.97,ESE,109,0.0,0.0,61,0.00,,,0.00,Wunderground v.1.15,2013-04-22 07:25:00,
2013-04-22 00:30:00,48.9,36.4,29.97,ESE,120,2.0,2.0,62,0.00,,,0.00,Wunderground v.1.15,2013-04-22 07:30:00,
2013-04-22 00:35:00,48.6,36.2,29.97,ESE,119,0.0,2.0,62,0.00,,,0.00,Wunderground v.1.15,2013-04-22 07:35:00,
2013-04-22 00:41:00,48.5,36.1,29.97,East,96,4.0,4.0,62,0.00,,,0.00,Wunderground v.1.15,2013-04-22 07:41:00,
2013-04-22 00:46:00,48.3,35.9,29.98,East,96,0.0,4.0,62,0.00,,,0.00,Wunderground v.1.15,2013-04-22 07:46:00,
2013-04-22 00:52:00,48.3,35.9,29.98,East,93,1.0,4.0,62,0.00,,,0.00,Wunderground v.1.15,2013-04-22 07:52:00,
2013-04-22 00:57:00,48.2,35.8,29.98,East,93,0.0,4.0,62,0.00,,,0.00,Wunderground v.1.15,2013-04-22 07:57:00,
2013-04-22 01:03:00,48.0,35.6,29.98,East,93,0.0,1.0,62,0.00,,,0.00,Wunderground v.1.15,2013-04-22 08:03:00,
2013-04-22 01:08:00,47.7,35.7,29.98,East,93,0.0,1.0,63,0.00,,,0.00,Wunderground v.1.15,2013-04-22 08:08:00,
2013-04-22 01:14:00,47.4,35.4,29.98,East,93,0.0,0.0,63,0.00,,,0.00,Wunderground v.1.15,2013-04-22 08:14:00,
2013-04-22 01:20:00,47.1,35.1,29.95,East,82,0.0,0.0,63,0.00,,,0.00,Wunderground v.1.15,2013-04-22 08:20:00,
2013-04-22 01:25:00,46.8,35.3,29.95,East,95,2.0,2.0,64,0.00,,,0.00,Wunderground v.1.15,2013-04-22 08:25:00,
2013-04-22 01:31:00,46.4,34.9,29.94,ESE,116,0.0,1.0,64,0.00,,,0.00,Wunderground v.1.15,2013-04-22 08:31:00,
2013-04-22 01:36:00,46.1,35.0,29.94,ESE,116,0.0,1.0,65,0.00,,,0.00,Wunderground v.1.15,2013-04-22 08:36:00,
2013-04-22 01:41:00,45.8,34.7,29.94,ESE,116,0.0,0.0,65,0.00,,,0.00,Wunderground v.1.15,2013-04-22 08:41:00,
2013-04-22 01:47:00,45.4,35.1,29.95,ESE,116,0.0,0.0,67,0.00,,,0.00,Wunderground v.1.15,2013-04-22 08:47:00,
2013-04-22 01:52:00,45.4,35.1,29.95,ESE,116,0.0,0.0,67,0.00,,,0.00,Wunderground v.1.15,2013-04-22 08:52:00,
2013-04-22 01:58:00,44.6,35.4,29.95,ESE,116,0.0,0.0,70,0.00,,,0.00,Wunderground v.1.15,2013-04-22 08:58:00,
2013-04-22 02:03:00,44.3,34.8,29.95,ESE,116,0.0,1.0,69,0.00,,,0.00,Wunderground v.1.15,2013-04-22 09:03:00,
2013-04-22 02:09:00,44.1,34.2,29.95,ESE,116,0.0,1.0,68,0.00,,,0.00,Wunderground v.1.15,2013-04-22 09:09:00,
2013-04-22 02:14:00,43.9,33.6,29.95,ESE,116,1.0,1.0,67,0.00,,,0.00,Wunderground v.1.15,2013-04-22 09:14:00,
2013-04-22 02:19:00,43.6,33.4,29.97,ESE,116,0.0,1.0,67,0.00,,,0.00,Wunderground v.1.15,2013-04-22 09:19:00,
2013-04-22 02:24:00,43.3,33.1,29.97,ESE,116,0.0,1.0,67,0.00,,,0.00,Wunderground v.1.15,2013-04-22 09:24:00,
2013-04-22 02:29:00,43.1,33.3,29.97,ESE,116,0.0,1.0,68,0.00,,,0.00,Wunderground v.1.15,2013-04-22 09:29:00,
2013-04-22 02:34:00,42.8,32.6,29.96,ESE,116,0.0,0.0,67,0.00,,,0.00,Wunderground v.1.15,2013-04-22 09:34:00,
2013-04-22 02:39:00,42.3,32.5,29.96,ESE,116,0.0,0.0,68,0.00,,,0.00,Wunderground v.1.15,2013-04-22 09:39:00,
2013-04-22 02:44:00,42.2,32.8,29.96,ESE,116,0.0,1.0,69,0.00,,,0.00,Wunderground v.1.15,2013-04-22 09:44:00,
2013-04-22 02:49:00,42.1,32.3,29.97,ESE,116,0.0,1.0,68,0.00,,,0.00,Wunderground v.1.15,2013-04-22 09:49:00,
2013-04-22 02:54:00,42.1,32.3,29.97,ESE,114,0.0,1.0,68,0.00,,,0.00,Wunderground v.1.15,2013-04-22 09:54:00,
2013-04-22 02:59:00,42.1,32.7,29.97,ESE,116,0.0,1.0,69,0.00,,,0.00,Wunderground v.1.15,2013-04-22 09:59:00,
2013-04-22 03:04:00,41.9,32.5,29.97,NE,48,1.0,1.0,69,0.00,,,0.00,Wunderground v.1.15,2013-04-22 10:04:00,
2013-04-22 03:09:00,42.1,32.3,29.97,East,93,0.0,2.0,68,0.00,,,0.00,Wunderground v.1.15,2013-04-22 10:09:00,
2013-04-22 03:14:00,42.1,32.7,29.94,East,93,0.0,2.0,69,0.00,,,0.00,Wunderground v.1.15,2013-04-22 10:14:00,
2013-04-22 03:19:00,42.1,32.3,29.94,East,93,0.0,2.0,68,0.00,,,0.00,Wunderground v.1.15,2013-04-22 10:19:00,
2013-04-22 03:24:00,41.9,32.1,29.94,East,93,0.0,1.0,68,0.00,,,0.00,Wunderground v.1.15,2013-04-22 10:24:00,
2013-04-22 03:29:00,41.8,32.0,29.95,East,93,0.0,1.0,68,0.00,,,0.00,Wunderground v.1.15,2013-04-22 10:29:00,
2013-04-22 03:34:00,41.6,32.2,29.95,East,93,0.0,1.0,69,0.00,,,0.00,Wunderground v.1.15,2013-04-22 10:34:00,
2013-04-22 03:39:00,41.5,32.1,29.95,East,93,0.0,1.0,69,0.00,,,0.00,Wunderground v.1.15,2013-04-22 10:39:00,
2013-04-22 03:44:00,41.3,31.9,29.97,East,93,0.0,0.0,69,0.00,,,0.00,Wunderground v.1.15,2013-04-22 10:44:00,
2013-04-22 03:49:00,41.2,31.4,29.97,East,93,0.0,1.0,68,0.00,,,0.00,Wunderground v.1.15,2013-04-22 10:49:00,
2013-04-22 03:54:00,41.1,31.7,29.97,East,93,0.0,1.0,69,0.00,,,0.00,Wunderground v.1.15,2013-04-22 10:54:00,
2013-04-22 03:59:00,41.1,32.1,29.97,East,93,0.0,1.0,70,0.00,,,0.00,Wunderground v.1.15,2013-04-22 10:59:00,
2013-04-22 04:04:00,41.1,31.7,29.97,East,93,0.0,0.0,69,0.00,,,0.00,Wunderground v.1.15,2013-04-22 11:04:00,
2013-04-22 04:10:00,40.9,31.5,29.97,East,93,0.0,0.0,69,0.00,,,0.00,Wunderground v.1.15,2013-04-22 11:10:00,
2013-04-22 04:15:00,40.6,30.9,29.97,East,93,0.0,0.0,68,0.00,,,0.00,Wunderground v.1.15,2013-04-22 11:15:00,
2013-04-22 04:20:00,40.2,30.8,29.97,East,93,0.0,0.0,69,0.00,,,0.00,Wunderground v.1.15,2013-04-22 11:20:00,
2013-04-22 04:25:00,39.9,31.3,29.97,East,93,0.0,0.0,71,0.00,,,0.00,Wunderground v.1.15,2013-04-22 11:25:00,
2013-04-22 04:30:00,39.8,31.2,29.98,East,93,0.0,0.0,71,0.00,,,0.00,Wunderground v.1.15,2013-04-22 11:30:00,
2013-04-22 04:35:00,39.6,31.0,29.98,East,93,0.0,1.0,71,0.00,,,0.00,Wunderground v.1.15,2013-04-22 11:35:00,
2013-04-22 04:40:00,39.3,30.7,29.98,East,93,0.0,0.0,71,0.00,,,0.00,Wunderground v.1.15,2013-04-22 11:40:00,
2013-04-22 04:45:00,39.1,30.5,29.98,East,93,0.0,0.0,71,0.00,,,0.00,Wunderground v.1.15,2013-04-22 11:45:00,
2013-04-22 04:50:00,38.8,30.5,29.98,East,93,0.0,0.0,72,0.00,,,0.00,Wunderground v.1.15,2013-04-22 11:50:00,
2013-04-22 04:55:00,38.3,29.7,29.98,East,93,0.0,2.0,71,0.00,,,0.00,Wunderground v.1.15,2013-04-22 11:55:00,
2013-04-22 05:00:00,38.0,30.1,29.99,East,93,0.0,0.0,73,0.00,,,0.00,Wunderground v.1.15,2013-04-22 12:00:00,
2013-04-22 05:05:00,37.9,30.4,29.99,East,93,0.0,0.0,74,0.00,,,0.00,Wunderground v.1.15,2013-04-22 12:05:00,
2013-04-22 05:10:00,37.8,30.6,29.99,East,93,0.0,0.0,75,0.00,,,0.00,Wunderground v.1.15,2013-04-22 12:10:00,
2013-04-22 05:15:00,37.6,30.1,30.00,East,93,2.0,4.0,74,0.00,,,0.00,Wunderground v.1.15,2013-04-22 12:15:00,
2013-04-22 05:20:00,37.5,30.3,30.00,East,93,0.0,0.0,75,0.00,,,0.00,Wunderground v.1.15,2013-04-22 12:20:00,
2013-04-22 05:25:00,37.5,30.0,30.00,East,93,0.0,0.0,74,0.00,,,0.00,Wunderground v.1.15,2013-04-22 12:25:00,
2013-04-22 05:30:00,37.6,30.4,30.00,ENE,78,0.0,0.0,75,0.00,,,0.00,Wunderground v.1.15,2013-04-22 12:30:00,
2013-04-22 05:35:00,37.6,30.4,30.00,ENE,78,0.0,0.0,75,0.00,,,0.00,Wunderground v.1.15,2013-04-22 12:35:00,
2013-04-22 05:40:00,37.6,30.1,30.00,ENE,78,0.0,0.0,74,0.00,,,0.00,Wunderground v.1.15,2013-04-22 12:40:00,
2013-04-22 05:45:00,37.6,30.1,30.00,ENE,78,0.0,0.0,74,0.00,,,0.00,Wunderground v.1.15,2013-04-22 12:45:00,
2013-04-22 05:50:00,37.5,30.3,30.00,ENE,78,0.0,0.0,75,0.00,,,0.00,Wunderground v.1.15,2013-04-22 12:50:00,
2013-04-22 05:55:00,37.5,30.6,30.00,ENE,78,0.0,0.0,76,0.00,,,0.00,Wunderground v.1.15,2013-04-22 12:55:00,
2013-04-22 06:00:00,37.6,30.1,30.00,ENE,78,0.0,0.0,74,0.00,,,0.00,Wunderground v.1.15,2013-04-22 13:00:00,
2013-04-22 06:05:00,37.6,29.7,30.00,ENE,78,0.0,0.0,73,0.00,,,0.00,Wunderground v.1.15,2013-04-22 13:05:00,
2013-04-22 06:10:00,37.5,29.6,30.00,ENE,78,0.0,0.0,73,0.00,,,0.00,Wunderground v.1.15,2013-04-22 13:10:00,
2013-04-22 06:15:00,37.0,29.1,30.03,ENE,78,0.0,0.0,73,0.00,,,0.00,Wunderground v.1.15,2013-04-22 13:15:00,
2013-04-22 06:20:00,36.9,29.4,30.03,ENE,78,0.0,0.0,74,0.00,,,0.00,Wunderground v.1.15,2013-04-22 13:20:00,
2013-04-22 06:26:00,36.6,29.4,30.03,ENE,78,0.0,0.0,75,0.00,,,0.00,Wunderground v.1.15,2013-04-22 13:26:00,
2013-04-22 06:31:00,36.5,29.3,30.04,ENE,78,0.0,0.0,75,0.00,,,0.00,Wunderground v.1.15,2013-04-22 13:31:00,
2013-04-22 06:36:00,36.5,29.7,30.04,ENE,78,0.0,1.0,76,0.00,,,0.00,Wunderground v.1.15,2013-04-22 13:36:00,
2013-04-22 06:41:00,36.5,29.3,30.04,ENE,78,0.0,0.0,75,0.00,,,0.00,Wunderground v.1.15,2013-04-22 13:41:00,
2013-04-22 06:46:00,36.5,29.0,30.04,ENE,78,0.0,0.0,74,0.00,,,0.00,Wunderground v.1.15,2013-04-22 13:46:00,
2013-04-22 06:51:00,36.6,29.4,30.04,ENE,78,0.0,0.0,75,0.00,,,0.00,Wunderground v.1.15,2013-04-22 13:51:00,
2013-04-22 06:56:00,37.0,29.8,30.04,ENE,78,0.0,1.0,75,0.00,,,0.00,Wunderground v.1.15,2013-04-22 13:56:00,
2013-04-22 07:01:00,37.6,30.1,30.04,ENE,78,0.0,0.0,74,0.00,,,0.00,Wunderground v.1.15,2013-04-22 14:01:00,
2013-04-22 07:06:00,37.9,30.4,30.04,ENE,78,0.0,0.0,74,0.00,,,0.00,Wunderground v.1.15,2013-04-22 14:06:00,
2013-04-22 07:11:00,38.3,30.7,30.04,ESE,116,2.0,2.0,74,0.00,,,0.00,Wunderground v.1.15,2013-04-22 14:11:00,
2013-04-22 07:16:00,38.9,31.3,30.07,SE,128,0.0,4.0,74,0.00,,,0.00,Wunderground v.1.15,2013-04-22 14:16:00,
2013-04-22 07:21:00,39.5,31.2,30.07,SE,127,0.0,1.0,72,0.00,,,0.00,Wunderground v.1.15,2013-04-22 14:21:00,
2013-04-22 07:26:00,40.1,31.4,30.07,ESE,117,1.0,2.0,71,0.00,,,0.00,Wunderground v.1.15,2013-04-22 14:26:00,
2013-04-22 07:31:00,40.8,31.8,30.06,ESE,119,0.0,0.0,70,0.00,,,0.00,Wunderground v.1.15,2013-04-22 14:31:00,
2013-04-22 07:36:00,41.5,32.1,30.06,ESE,119,0.0,1.0,69,0.00,,,0.00,Wunderground v.1.15,2013-04-22 14:36:00,
2013-04-22 07:41:00,42.1,32.7,30.06,ESE,119,0.0,0.0,69,0.00,,,0.00,Wunderground v.1.15,2013-04-22 14:41:00,
2013-04-22 07:46:00,42.6,32.8,30.05,ESE,119,0.0,1.0,68,0.00,,,0.00,Wunderground v.1.15,2013-04-22 14:46:00,
2013-04-22 07:51:00,43.3,33.1,30.05,ESE,119,0.0,1.0,67,0.00,,,0.00,Wunderground v.1.15,2013-04-22 14:51:00,
2013-04-22 07:56:00,44.2,33.2,30.05,ESE,119,0.0,1.0,65,0.00,,,0.00,Wunderground v.1.15,2013-04-22 14:56:00,
2013-04-22 08:01:00,44.9,33.8,30.05,ESE,119,0.0,2.0,65,0.00,,,0.00,Wunderground v.1.15,2013-04-22 15:01:00,
2013-04-22 08:06:00,45.5,33.6,30.05,ESE,119,0.0,2.0,63,0.00,,,0.00,Wunderground v.1.15,2013-04-22 15:06:00,
2013-04-22 08:11:00,46.2,34.3,30.05,South,179,0.0,1.0,63,0.00,,,0.00,Wunderground v.1.15,2013-04-22 15:11:00,
2013-04-22 08:16:00,46.8,34.5,30.06,South,178,0.0,1.0,62,0.00,,,0.00,Wunderground v.1.15,2013-04-22 15:16:00,
2013-04-22 08:21:00,47.4,34.6,30.06,SW,224,0.0,1.0,61,0.00,,,0.00,Wunderground v.1.15,2013-04-22 15:21:00,
2013-04-22 08:27:00,48.0,34.3,30.06,SW,216,0.0,1.0,59,0.00,,,0.00,Wunderground v.1.15,2013-04-22 15:27:00,
2013-04-22 08:32:00,48.6,34.5,30.05,SW,216,0.0,0.0,58,0.00,,,0.00,Wunderground v.1.15,2013-04-22 15:32:00,
2013-04-22 08:37:00,49.2,34.2,30.05,SSW,210,0.0,0.0,56,0.00,,,0.00,Wunderground v.1.15,2013-04-22 15:37:00,
2013-04-22 08:42:00,50.1,34.5,30.05,NE,48,0.0,0.0,55,0.00,,,0.00,Wunderground v.1.15,2013-04-22 15:42:00,
2013-04-22 08:47:00,50.8,34.3,30.04,NE,49,0.0,1.0,53,0.00,,,0.00,Wunderground v.1.15,2013-04-22 15:47:00,
2013-04-22 08:52:00,51.3,34.3,30.04,NE,49,0.0,0.0,52,0.00,,,0.00,Wunderground v.1.15,2013-04-22 15:52:00,
2013-04-22 08:57:00,51.9,35.3,30.04,NNE,13,1.0,4.0,53,0.00,,,0.00,Wunderground v.1.15,2013-04-22 15:57:00,
2013-04-22 09:02:00,52.3,34.7,30.03,NNE,32,0.0,2.0,51,0.00,,,0.00,Wunderground v.1.15,2013-04-22 16:02:00,
2013-04-22 09:07:00,52.8,35.2,30.03,North,356,0.0,4.0,51,0.00,,,0.00,Wunderground v.1.15,2013-04-22 16:07:00,
2013-04-22 09:12:00,53.1,35.4,30.03,NE,34,2.0,2.0,51,0.00,,,0.00,Wunderground v.1.15,2013-04-22 16:12:00,
2013-04-22 09:17:00,53.8,36.1,30.02,North,356,0.0,2.0,51,0.00,,,0.00,Wunderground v.1.15,2013-04-22 16:17:00,
2013-04-22 09:22:00,54.1,35.3,30.02,North,4,4.0,7.0,49,0.00,,,0.00,Wunderground v.1.15,2013-04-22 16:22:00,
2013-04-22 09:27:00,54.4,36.6,30.02,NNW,339,1.0,7.0,51,0.00,,,0.00,Wunderground v.1.15,2013-04-22 16:27:00,
2013-04-22 09:32:00,54.7,35.9,30.02,NW,315,2.0,6.0,49,0.00,,,0.00,Wunderground v.1.15,2013-04-22 16:32:00,
2013-04-22 09:37:00,55.1,35.7,30.02,NW,309,1.0,6.0,48,0.00,,,0.00,Wunderground v.1.15,2013-04-22 16:37:00,
2013-04-22 09:42:00,55.4,35.5,30.02,NNW,328,4.0,6.0,47,0.00,,,0.00,Wunderground v.1.15,2013-04-22 16:42:00,
2013-04-22 09:48:00,55.9,34.3,30.00,WNW,291,2.0,7.0,44,0.00,,,0.00,Wunderground v.1.15,2013-04-22 16:48:00,
2013-04-22 09:53:00,56.2,35.1,30.00,North,357,1.0,4.0,45,0.00,,,0.00,Wunderground v.1.15,2013-04-22 16:53:00,
2013-04-22 09:58:00,56.5,34.3,30.00,North,0,6.0,7.0,43,0.00,,,0.00,Wunderground v.1.15,2013-04-22 16:58:00,
2013-04-22 10:03:00,56.9,35.2,30.00,NNW,328,2.0,6.0,44,0.00,,,0.00,Wunderground v.1.15,2013-04-22 17:03:00,
2013-04-22 10:09:00,57.3,34.4,30.00,NNW,328,1.0,6.0,42,0.00,,,0.00,Wunderground v.1.15,2013-04-22 17:09:00,
2013-04-22 10:14:00,57.6,35.2,30.01,North,354,2.0,7.0,43,0.00,,,0.00,Wunderground v.1.15,2013-04-22 17:14:00,
2013-04-22 10:19:00,58.0,34.4,30.01,NNE,20,4.0,7.0,41,0.00,,,0.00,Wunderground v.1.15,2013-04-22 17:19:00,
2013-04-22 10:24:00,58.4,33.5,30.01,NNW,346,0.0,7.0,39,0.00,,,0.00,Wunderground v.1.15,2013-04-22 17:24:00,
2013-04-22 10:29:00,58.9,34.6,30.01,North,0,4.0,7.0,40,0.00,,,0.00,Wunderground v.1.15,2013-04-22 17:29:00,
2013-04-22 10:34:00,59.3,33.7,30.01,NNE,23,0.0,8.0,38,0.00,,,0.00,Wunderground v.1.15,2013-04-22 17:34:00,
2013-04-22 10:39:00,59.6,33.9,30.01,North,354,1.0,8.0,38,0.00,,,0.00,Wunderground v.1.15,2013-04-22 17:39:00,
2013-04-22 10:44:00,59.8,34.1,30.00,NE,34,2.0,7.0,38,0.00,,,0.00,Wunderground v.1.15,2013-04-22 17:44:00,
2013-04-22 10:49:00,59.9,32.9,30.00,South,191,1.0,7.0,36,0.00,,,0.00,Wunderground v.1.15,2013-04-22 17:49:00,
2013-04-22 10:54:00,60.2,32.4,30.00,NW,308,0.0,6.0,35,0.00,,,0.00,Wunderground v.1.15,2013-04-22 17:54:00,
2013-04-22 10:59:00,60.7,31.4,30.00,NNW,340,7.0,9.0,33,0.00,,,0.00,Wunderground v.1.15,2013-04-22 17:59:00,
2013-04-22 11:04:00,61.2,30.3,30.00,NNE,14,2.0,8.0,31,0.00,,,0.00,Wunderground v.1.15,2013-04-22 18:04:00,
2013-04-22 11:09:00,61.5,29.7,30.00,ENE,75,0.0,8.0,30,0.00,,,0.00,Wunderground v.1.15,2013-04-22 18:09:00,
2013-04-22 11:15:00,61.8,31.6,30.02,NNE,28,4.0,9.0,32,0.00,,,0.00,Wunderground v.1.15,2013-04-22 18:15:00,
2013-04-22 11:20:00,62.1,31.9,30.02,North,1,2.0,2.0,32,0.00,,,0.00,Wunderground v.1.15,2013-04-22 18:20:00,
2013-04-22 11:25:00,62.1,29.4,30.02,NNE,27,0.0,9.0,29,0.00,,,0.00,Wunderground v.1.15,2013-04-22 18:25:00,
2013-04-22 11:30:00,62.4,28.8,30.01,NE,44,0.0,2.0,28,0.00,,,0.00,Wunderground v.1.15,2013-04-22 18:30:00,
2013-04-22 11:35:00,62.6,29.0,30.01,WNW,296,2.0,4.0,28,0.00,,,0.00,Wunderground v.1.15,2013-04-22 18:35:00,
2013-04-22 11:40:00,62.7,30.8,30.01,SW,227,1.0,1.0,30,0.00,,,0.00,Wunderground v.1.15,2013-04-22 18:40:00,
2013-04-22 11:45:00,63.2,29.5,29.99,North,4,4.0,6.0,28,0.00,,,0.00,Wunderground v.1.15,2013-04-22 18:45:00,
2013-04-22 11:50:00,63.5,29.8,29.99,SW,222,0.0,1.0,28,0.00,,,0.00,Wunderground v.1.15,2013-04-22 18:50:00,
2013-04-22 11:55:00,63.9,29.2,29.99,ENE,58,4.0,7.0,27,0.00,,,0.00,Wunderground v.1.15,2013-04-22 18:55:00,
2013-04-22 12:00:00,64.3,32.2,29.99,NNE,23,0.0,2.0,30,0.00,,,0.00,Wunderground v.1.15,2013-04-22 19:00:00,
2013-04-22 12:05:00,64.8,30.0,29.99,North,7,4.0,7.0,27,0.00,,,0.00,Wunderground v.1.15,2013-04-22 19:05:00,
2013-04-22 12:10:00,65.0,31.1,29.99,NW,322,0.0,2.0,28,0.00,,,0.00,Wunderground v.1.15,2013-04-22 19:10:00,
2013-04-22 12:15:00,65.2,31.2,29.99,WSW,257,0.0,4.0,28,0.00,,,0.00,Wunderground v.1.15,2013-04-22 19:15:00,
2013-04-22 12:20:00,65.3,27.5,29.99,North,11,0.0,1.0,24,0.00,,,0.00,Wunderground v.1.15,2013-04-22 19:20:00,
2013-04-22 12:25:00,65.6,27.8,29.99,SW,219,0.0,7.0,24,0.00,,,0.00,Wunderground v.1.15,2013-04-22 19:25:00,
2013-04-22 12:30:00,66.3,27.4,29.97,NNW,333,0.0,4.0,23,0.00,,,0.00,Wunderground v.1.15,2013-04-22 19:30:00,
2013-04-22 12:36:00,66.4,26.4,29.97,NW,309,2.0,8.0,22,0.00,,,0.00,Wunderground v.1.15,2013-04-22 19:36:00,
2013-04-22 12:41:00,66.6,24.2,29.97,NW,311,1.0,7.0,20,0.00,,,0.00,Wunderground v.1.15,2013-04-22 19:41:00,
2013-04-22 12:46:00,66.8,23.2,29.96,SSW,198,4.0,7.0,19,0.00,,,0.00,Wunderground v.1.15,2013-04-22 19:46:00,
2013-04-22 12:51:00,67.4,22.4,29.96,North,0,1.0,4.0,18,0.00,,,0.00,Wunderground v.1.15,2013-04-22 19:51:00,
2013-04-22 12:56:00,67.9,24.1,29.96,WNW,285,0.0,6.0,19,0.00,,,0.00,Wunderground v.1.15,2013-04-22 19:56:00,
2013-04-22 13:01:00,67.9,22.8,29.95,WSW,250,0.0,4.0,18,0.00,,,0.00,Wunderground v.1.15,2013-04-22 20:01:00,
2013-04-22 13:06:00,67.9,22.8,29.95,North,0,8.0,8.0,18,0.00,,,0.00,Wunderground v.1.15,2013-04-22 20:06:00,
2013-04-22 13:11:00,68.1,20.2,29.95,SSE,151,1.0,3.0,16,0.00,,,0.00,Wunderground v.1.15,2013-04-22 20:11:00,
2013-04-22 13:16:00,68.3,18.8,29.96,ENE,58,0.0,4.0,15,0.00,,,0.00,Wunderground v.1.15,2013-04-22 20:16:00,
2013-04-22 13:21:00,68.4,18.9,29.96,NW,318,0.0,1.0,15,0.00,,,0.00,Wunderground v.1.15,2013-04-22 20:21:00,
2013-04-22 13:26:00,69.3,25.2,29.96,ESE,113,4.0,8.0,19,0.00,,,0.00,Wunderground v.1.15,2013-04-22 20:26:00,
2013-04-22 13:31:00,69.6,19.9,29.94,North,6,1.0,7.0,15,0.00,,,0.00,Wunderground v.1.15,2013-04-22 20:31:00,
2013-04-22 13:36:00,69.3,18.0,29.94,NE,51,0.0,7.0,14,0.00,,,0.00,Wunderground v.1.15,2013-04-22 20:36:00,
2013-04-22 13:41:00,69.8,24.3,29.94,ESE,104,6.0,6.0,18,0.00,,,0.00,Wunderground v.1.15,2013-04-22 20:41:00,
2013-04-22 13:46:00,70.8,20.8,29.94,NNW,347,1.0,6.0,15,0.00,,,0.00,Wunderground v.1.15,2013-04-22 20:46:00,
2013-04-22 13:51:00,71.3,19.6,29.94,WSW,250,0.0,2.0,14,0.00,,,0.00,Wunderground v.1.15,2013-04-22 20:51:00,
2013-04-22 13:56:00,72.0,20.1,29.94,WSW,250,0.0,6.0,14,0.00,,,0.00,Wunderground v.1.15,2013-04-22 20:56:00,
2013-04-22 14:01:00,72.7,22.3,29.92,WSW,248,0.0,2.0,15,0.00,,,0.00,Wunderground v.1.15,2013-04-22 21:01:00,
2013-04-22 14:06:00,72.7,20.7,29.92,NE,37,6.0,8.0,14,0.00,,,0.00,Wunderground v.1.15,2013-04-22 21:06:00,
2013-04-22 14:11:00,72.5,22.2,29.92,NW,304,2.0,6.0,15,0.00,,,0.00,Wunderground v.1.15,2013-04-22 21:11:00,
2013-04-22 14:16:00,71.6,21.5,29.92,NW,305,0.0,7.0,15,0.00,,,0.00,Wunderground v.1.15,2013-04-22 21:16:00,
2013-04-22 14:21:00,71.6,21.5,29.92,NNE,20,2.0,7.0,15,0.00,,,0.00,Wunderground v.1.15,2013-04-22 21:21:00,
2013-04-22 14:26:00,71.1,22.6,29.92,NNE,24,0.0,9.0,16,0.00,,,0.00,Wunderground v.1.15,2013-04-22 21:26:00,
2013-04-22 14:31:00,71.1,21.1,29.92,NNW,340,1.0,3.0,15,0.00,,,0.00,Wunderground v.1.15,2013-04-22 21:31:00,
2013-04-22 14:36:00,71.8,23.2,29.92,East,89,0.0,3.0,16,0.00,,,0.00,Wunderground v.1.15,2013-04-22 21:36:00,
2013-04-22 14:41:00,72.1,21.9,29.92,East,83,1.0,6.0,15,0.00,,,0.00,Wunderground v.1.15,2013-04-22 21:41:00,
2013-04-22 14:46:00,72.1,21.9,29.91,ENE,64,6.0,8.0,15,0.00,,,0.00,Wunderground v.1.15,2013-04-22 21:46:00,
2013-04-22 14:51:00,72.0,23.3,29.91,North,353,6.0,9.0,16,0.00,,,0.00,Wunderground v.1.15,2013-04-22 21:51:00,
2013-04-22 14:56:00,71.3,22.7,29.91,North,4,2.0,9.0,16,0.00,,,0.00,Wunderground v.1.15,2013-04-22 21:56:00,
2013-04-22 15:01:00,71.6,23.0,29.90,NW,322,1.0,4.0,16,0.00,,,0.00,Wunderground v.1.15,2013-04-22 22:01:00,
2013-04-22 15:06:00,72.1,23.4,29.90,North,349,2.0,4.0,16,0.00,,,0.00,Wunderground v.1.15,2013-04-22 22:06:00,
2013-04-22 15:11:00,72.7,23.9,29.90,East,82,1.0,6.0,16,0.00,,,0.00,Wunderground v.1.15,2013-04-22 22:11:00,
2013-04-22 15:16:00,73.2,24.3,29.89,North,4,7.0,7.0,16,0.00,,,0.00,Wunderground v.1.15,2013-04-22 22:16:00,
2013-04-22 15:21:00,73.5,24.5,29.89,WNW,284,0.0,2.0,16,0.00,,,0.00,Wunderground v.1.15,2013-04-22 22:21:00,
2013-04-22 15:26:00,74.4,23.7,29.89,NE,37,6.0,6.0,15,0.00,,,0.00,Wunderground v.1.15,2013-04-22 22:26:00,
2013-04-22 15:31:00,74.4,23.7,29.89,NW,326,2.0,7.0,15,0.00,,,0.00,Wunderground v.1.15,2013-04-22 22:31:00,
2013-04-22 15:36:00,74.6,23.9,29.89,NNW,346,0.0,7.0,15,0.00,,,0.00,Wunderground v.1.15,2013-04-22 22:36:00,
2013-04-22 15:41:00,74.4,22.1,29.89,NNW,346,7.0,9.0,14,0.00,,,0.00,Wunderground v.1.15,2013-04-22 22:41:00,
2013-04-22 15:46:00,74.0,23.4,29.88,North,0,7.0,10.0,15,0.00,,,0.00,Wunderground v.1.15,2013-04-22 22:46:00,
2013-04-22 15:51:00,74.0,23.4,29.88,North,357,2.0,7.0,15,0.00,,,0.00,Wunderground v.1.15,2013-04-22 22:51:00,
2013-04-22 15:56:00,74.4,23.7,29.88,NW,305,1.0,7.0,15,0.00,,,0.00,Wunderground v.1.15,2013-04-22 22:56:00,
2013-04-22 16:01:00,74.4,23.7,29.88,WNW,285,7.0,11.0,15,0.00,,,0.00,Wunderground v.1.15,2013-04-22 23:01:00,
2013-04-22 16:06:00,74.2,21.9,29.88,NW,325,4.0,13.0,14,0.00,,,0.00,Wunderground v.1.15,2013-04-22 23:06:00,
2013-04-22 16:11:00,74.0,23.4,29.88,NNW,329,11.0,16.0,15,0.00,,,0.00,Wunderground v.1.15,2013-04-22 23:11:00,
2013-04-22 16:17:00,73.9,21.7,29.88,North,0,9.0,16.0,14,0.00,,,0.00,Wunderground v.1.15,2013-04-22 23:17:00,
2013-04-22 16:22:00,73.7,19.8,29.88,North,350,4.0,10.0,13,0.00,,,0.00,Wunderground v.1.15,2013-04-22 23:22:00,
2013-04-22 16:27:00,73.7,19.8,29.88,NNE,16,8.0,13.0,13,0.00,,,0.00,Wunderground v.1.15,2013-04-22 23:27:00,
2013-04-22 16:32:00,73.5,23.0,29.88,NE,48,2.0,10.0,15,0.00,,,0.00,Wunderground v.1.15,2013-04-22 23:32:00,
2013-04-22 16:37:00,73.7,21.5,29.88,NNE,13,10.0,11.0,14,0.00,,,0.00,Wunderground v.1.15,2013-04-22 23:37:00,
2013-04-22 16:42:00,73.2,19.4,29.88,NE,52,7.0,10.0,13,0.00,,,0.00,Wunderground v.1.15,2013-04-22 23:42:00,
2013-04-22 16:47:00,73.0,20.9,29.88,North,8,6.0,11.0,14,0.00,,,0.00,Wunderground v.1.15,2013-04-22 23:47:00,
2013-04-22 16:52:00,73.5,23.0,29.88,NNW,330,2.0,10.0,15,0.00,,,0.00,Wunderground v.1.15,2013-04-22 23:52:00,
2013-04-22 16:57:00,73.7,19.8,29.88,NE,49,2.0,10.0,13,0.00,,,0.00,Wunderground v.1.15,2013-04-22 23:57:00,
2013-04-22 17:02:00,73.7,21.5,29.87,NW,311,6.0,9.0,14,0.00,,,0.00,Wunderground v.1.15,2013-04-23 00:02:00,
2013-04-22 17:07:00,74.0,21.7,29.87,NNE,14,8.0,9.0,14,0.00,,,0.00,Wunderground v.1.15,2013-04-23 00:07:00,
2013-04-22 17:12:00,73.9,23.3,29.87,NNW,344,6.0,11.0,15,0.00,,,0.00,Wunderground v.1.15,2013-04-23 00:12:00,
2013-04-22 17:17:00,73.7,23.1,29.87,North,0,2.0,11.0,15,0.00,,,0.00,Wunderground v.1.15,2013-04-23 00:17:00,
2013-04-22 17:22:00,73.7,24.7,29.87,North,353,8.0,11.0,16,0.00,,,0.00,Wunderground v.1.15,2013-04-23 00:22:00,
2013-04-22 17:27:00,73.2,24.3,29.87,North,0,9.0,17.0,16,0.00,,,0.00,Wunderground v.1.15,2013-04-23 00:27:00,
2013-04-22 17:32:00,72.3,25.0,29.88,NNE,21,9.0,16.0,17,0.00,,,0.00,Wunderground v.1.15,2013-04-23 00:32:00,
2013-04-22 17:37:00,72.0,26.1,29.88,NNW,346,9.0,18.0,18,0.00,,,0.00,Wunderground v.1.15,2013-04-23 00:37:00,
2013-04-22 17:42:00,71.8,26.0,29.88,NNE,30,10.0,17.0,18,0.00,,,0.00,Wunderground v.1.15,2013-04-23 00:42:00,
2013-04-22 17:47:00,71.6,27.1,29.88,NNW,339,7.0,17.0,19,0.00,,,0.00,Wunderground v.1.15,2013-04-23 00:47:00,
2013-04-22 17:52:00,71.5,25.7,29.88,NNE,16,6.0,14.0,18,0.00,,,0.00,Wunderground v.1.15,2013-04-23 00:52:00,
2013-04-22 17:57:00,71.1,26.7,29.88,North,0,14.0,18.0,19,0.00,,,0.00,Wunderground v.1.15,2013-04-23 00:57:00,
2013-04-22 18:02:00,70.9,27.8,29.90,North,0,8.0,17.0,20,0.00,,,0.00,Wunderground v.1.15,2013-04-23 01:02:00,
2013-04-22 18:07:00,70.3,28.5,29.90,North,0,16.0,18.0,21,0.00,,,0.00,Wunderground v.1.15,2013-04-23 01:07:00,
2013-04-22 18:12:00,69.8,28.1,29.90,NW,306,11.0,20.0,21,0.00,,,0.00,Wunderground v.1.15,2013-04-23 01:12:00,
2013-04-22 18:17:00,69.6,27.9,29.90,North,350,13.0,20.0,21,0.00,,,0.00,Wunderground v.1.15,2013-04-23 01:17:00,
2013-04-22 18:22:00,68.8,28.4,29.90,NNW,346,18.0,20.0,22,0.00,,,0.00,Wunderground v.1.15,2013-04-23 01:22:00,
2013-04-22 18:27:00,68.6,29.3,29.90,North,3,16.0,20.0,23,0.00,,,0.00,Wunderground v.1.15,2013-04-23 01:27:00,
2013-04-22 18:32:00,68.6,28.2,29.92,North,0,8.0,11.0,22,0.00,,,0.00,Wunderground v.1.15,2013-04-23 01:32:00,
2013-04-22 18:37:00,68.3,29.0,29.92,North,11,17.0,18.0,23,0.00,,,0.00,Wunderground v.1.15,2013-04-23 01:37:00,
2013-04-22 18:42:00,67.3,28.2,29.92,NNE,13,9.0,17.0,23,0.00,,,0.00,Wunderground v.1.15,2013-04-23 01:42:00,
2013-04-22 18:47:00,66.4,30.4,29.93,North,4,13.0,17.0,26,0.00,,,0.00,Wunderground v.1.15,2013-04-23 01:47:00,
2013-04-22 18:52:00,65.8,29.9,29.93,NNE,20,13.0,14.0,26,0.00,,,0.00,Wunderground v.1.15,2013-04-23 01:52:00,
2013-04-22 18:57:00,65.5,25.6,29.93,NNE,23,8.0,18.0,22,0.00,,,0.00,Wunderground v.1.15,2013-04-23 01:57:00,
2013-04-22 19:02:00,65.2,26.4,29.94,NNE,32,10.0,15.0,23,0.00,,,0.00,Wunderground v.1.15,2013-04-23 02:02:00,
2013-04-22 19:07:00,64.3,25.7,29.94,NNE,32,9.0,17.0,23,0.00,,,0.00,Wunderground v.1.15,2013-04-23 02:07:00,
2013-04-22 19:12:00,63.7,25.2,29.94,NNE,31,9.0,13.0,23,0.00,,,0.00,Wunderground v.1.15,2013-04-23 02:12:00,
2013-04-22 19:17:00,63.1,24.7,29.93,NE,38,9.0,15.0,23,0.00,,,0.00,Wunderground v.1.15,2013-04-23 02:17:00,
2013-04-22 19:22:00,62.6,24.2,29.93,NNE,30,8.0,14.0,23,0.00,,,0.00,Wunderground v.1.15,2013-04-23 02:22:00,
2013-04-22 19:27:00,62.0,24.8,29.93,NE,40,4.0,14.0,24,0.00,,,0.00,Wunderground v.1.15,2013-04-23 02:27:00,
2013-04-22 19:33:00,61.3,22.1,29.96,NE,45,6.0,13.0,22,0.00,,,0.00,Wunderground v.1.15,2013-04-23 02:33:00,
2013-04-22 19:38:00,61.0,22.9,29.96,NE,45,2.0,13.0,23,0.00,,,0.00,Wunderground v.1.15,2013-04-23 02:38:00,
2013-04-22 19:44:00,60.5,21.4,29.96,NE,56,2.0,11.0,22,0.00,,,0.00,Wunderground v.1.15,2013-04-23 02:44:00,
2013-04-22 19:49:00,60.1,22.1,29.97,NE,56,2.0,11.0,23,0.00,,,0.00,Wunderground v.1.15,2013-04-23 02:49:00,
2013-04-22 19:54:00,59.5,21.6,29.97,NE,44,7.0,11.0,23,0.00,,,0.00,Wunderground v.1.15,2013-04-23 02:54:00,
2013-04-22 19:59:00,59.0,21.2,29.97,ENE,59,7.0,11.0,23,0.00,,,0.00,Wunderground v.1.15,2013-04-23 02:59:00,
2013-04-22 20:04:00,58.6,20.9,29.99,ENE,58,8.0,10.0,23,0.00,,,0.00,Wunderground v.1.15,2013-04-23 03:04:00,
2013-04-22 20:09:00,58.0,20.4,29.99,NE,40,7.0,10.0,23,0.00,,,0.00,Wunderground v.1.15,2013-04-23 03:09:00,
2013-04-22 20:14:00,57.3,20.8,29.99,NE,51,4.0,10.0,24,0.00,,,0.00,Wunderground v.1.15,2013-04-23 03:14:00,
2013-04-22 20:19:00,56.9,20.4,29.99,NE,56,4.0,10.0,24,0.00,,,0.00,Wunderground v.1.15,2013-04-23 03:19:00,
2013-04-22 20:24:00,56.6,20.2,29.99,ENE,69,4.0,7.0,24,0.00,,,0.00,Wunderground v.1.15,2013-04-23 03:24:00,
2013-04-22 20:29:00,56.3,19.9,30.00,NE,45,7.0,9.0,24,0.00,,,0.00,Wunderground v.1.15,2013-04-23 03:29:00,
2013-04-22 20:34:00,56.0,19.7,30.00,NE,42,6.0,7.0,24,0.00,,,0.00,Wunderground v.1.15,2013-04-23 03:34:00,
2013-04-22 20:39:00,55.6,19.3,30.00,NE,54,1.0,7.0,24,0.00,,,0.00,Wunderground v.1.15,2013-04-23 03:39:00,
2013-04-22 20:44:00,55.1,19.9,30.02,NE,44,4.0,8.0,25,0.00,,,0.00,Wunderground v.1.15,2013-04-23 03:44:00,
2013-04-22 20:49:00,54.4,19.3,30.02,NNE,31,2.0,8.0,25,0.00,,,0.00,Wunderground v.1.15,2013-04-23 03:49:00,
2013-04-22 20:54:00,54.4,19.3,30.02,NNE,16,6.0,8.0,25,0.00,,,0.00,Wunderground v.1.15,2013-04-23 03:54:00,
2013-04-22 20:59:00,54.2,20.0,30.04,North,0,0.0,8.0,26,0.00,,,0.00,Wunderground v.1.15,2013-04-23 03:59:00,
2013-04-22 21:01:00,54.2,20.0,30.04,North,0,2.0,4.0,26,0.00,,,0.00,Wunderground v.1.15,2013-04-23 04:01:00,
2013-04-22 21:02:00,54.2,21.8,30.04,North,352,0.0,6.0,28,0.00,,,0.00,Wunderground v.1.15,2013-04-23 04:02:00,
2013-04-22 21:07:00,53.8,21.4,30.04,North,0,0.0,6.0,28,0.00,,,0.00,Wunderground v.1.15,2013-04-23 04:07:00,
2013-04-22 21:13:00,53.1,20.8,30.04,North,359,0.0,2.0,28,0.00,,,0.00,Wunderground v.1.15,2013-04-23 04:13:00,
2013-04-22 21:19:00,52.6,20.4,30.03,NNE,20,0.0,4.0,28,0.00,,,0.00,Wunderground v.1.15,2013-04-23 04:19:00,
2013-04-22 21:24:00,51.9,22.9,30.03,NNE,18,0.0,2.0,32,0.00,,,0.00,Wunderground v.1.15,2013-04-23 04:24:00,
2013-04-22 21:29:00,51.1,21.5,30.05,NNE,16,0.0,4.0,31,0.00,,,0.00,Wunderground v.1.15,2013-04-23 04:29:00,
2013-04-22 21:34:00,51.1,19.9,30.05,North,10,4.0,7.0,29,0.00,,,0.00,Wunderground v.1.15,2013-04-23 04:34:00,
2013-04-22 21:39:00,51.0,19.8,30.05,NNE,16,8.0,10.0,29,0.00,,,0.00,Wunderground v.1.15,2013-04-23 04:39:00,
2013-04-22 21:44:00,51.0,19.8,30.06,NE,35,6.0,9.0,29,0.00,,,0.00,Wunderground v.1.15,2013-04-23 04:44:00,
2013-04-22 21:49:00,50.8,19.6,30.06,North,11,2.0,9.0,29,0.00,,,0.00,Wunderground v.1.15,2013-04-23 04:49:00,
2013-04-22 21:54:00,50.8,18.8,30.06,NNE,27,2.0,8.0,28,0.00,,,0.00,Wunderground v.1.15,2013-04-23 04:54:00,
2013-04-22 21:59:00,50.7,18.7,30.07,NNE,18,0.0,8.0,28,0.00,,,0.00,Wunderground v.1.15,2013-04-23 04:59:00,
2013-04-22 22:04:00,50.5,18.6,30.07,NNE,18,1.0,6.0,28,0.00,,,0.00,Wunderground v.1.15,2013-04-23 05:04:00,
2013-04-22 22:09:00,50.1,18.2,30.07,NE,44,1.0,6.0,28,0.00,,,0.00,Wunderground v.1.15,2013-04-23 05:09:00,
2013-04-22 22:14:00,49.2,22.7,30.07,NE,37,2.0,7.0,35,0.00,,,0.00,Wunderground v.1.15,2013-04-23 05:14:00,
2013-04-22 22:19:00,48.5,21.4,30.07,NNE,30,1.0,7.0,34,0.00,,,0.00,Wunderground v.1.15,2013-04-23 05:19:00,
2013-04-22 22:24:00,48.2,20.4,30.07,NNE,28,0.0,4.0,33,0.00,,,0.00,Wunderground v.1.15,2013-04-23 05:24:00,
2013-04-22 22:29:00,48.0,18.8,30.08,NNE,28,0.0,4.0,31,0.00,,,0.00,Wunderground v.1.15,2013-04-23 05:29:00,
2013-04-22 22:34:00,48.0,18.8,30.08,NNE,28,0.0,1.0,31,0.00,,,0.00,Wunderground v.1.15,2013-04-23 05:34:00,
2013-04-22 22:39:00,47.7,17.7,30.08,NNE,28,0.0,1.0,30,0.00,,,0.00,Wunderground v.1.15,2013-04-23 05:39:00,
2013-04-22 22:44:00,47.6,17.6,30.09,NE,41,4.0,4.0,30,0.00,,,0.00,Wunderground v.1.15,2013-04-23 05:44:00,
2013-04-22 22:49:00,48.3,13.1,30.09,NNE,32,2.0,11.0,24,0.00,,,0.00,Wunderground v.1.15,2013-04-23 05:49:00,
2013-04-22 22:54:00,48.9,13.6,30.09,NNE,28,2.0,7.0,24,0.00,,,0.00,Wunderground v.1.15,2013-04-23 05:54:00,
2013-04-22 22:59:00,48.9,16.3,30.08,NE,37,2.0,7.0,27,0.00,,,0.00,Wunderground v.1.15,2013-04-23 05:59:00,
2013-04-22 23:04:00,48.5,16.0,30.08,North,11,6.0,6.0,27,0.00,,,0.00,Wunderground v.1.15,2013-04-23 06:04:00,
2013-04-22 23:09:00,48.0,13.8,30.08,NE,34,4.0,9.0,25,0.00,,,0.00,Wunderground v.1.15,2013-04-23 06:09:00,
2013-04-22 23:14:00,47.6,13.5,30.08,NE,48,2.0,8.0,25,0.00,,,0.00,Wunderground v.1.15,2013-04-23 06:14:00,
2013-04-22 23:20:00,47.3,12.3,30.08,NE,35,4.0,5.0,24,0.00,,,0.00,Wunderground v.1.15,2013-04-23 06:20:00,
2013-04-22 23:25:00,47.0,14.7,30.08,NNE,13,4.0,7.0,27,0.00,,,0.00,Wunderground v.1.15,2013-04-23 06:25:00,
2013-04-22 23:30:00,46.4,15.0,30.09,NE,34,2.0,4.0,28,0.00,,,0.00,Wunderground v.1.15,2013-04-23 06:30:00,
2013-04-22 23:35:00,45.8,12.8,30.09,NE,52,1.0,4.0,26,0.00,,,0.00,Wunderground v.1.15,2013-04-23 06:35:00,
2013-04-22 23:40:00,45.5,11.7,30.09,NE,44,2.0,6.0,25,0.00,,,0.00,Wunderground v.1.15,2013-04-23 06:40:00,
2013-04-22 23:45:00,45.7,12.7,30.10,NE,42,0.0,6.0,26,0.00,,,0.00,Wunderground v.1.15,2013-04-23 06:45:00,
2013-04-22 23:50:00,45.7,12.7,30.10,NE,37,0.0,1.0,26,0.00,,,0.00,Wunderground v.1.15,2013-04-23 06:50:00,
2013-04-22 23:55:00,45.4,13.3,30.10,NE,37,0.0,1.0,27,0.00,,,0.00,Wunderground v.1.15,2013-04-23 06:55:00,